sensor_id;sensor_type;location;lat;lon;timestamp;pressure;altitude;pressure_sealevel;temperature;humidity
69351;BME280;57106;51.446;-2.606;2024-01-30T00:07:25;101840.72;;;12.07;82.81
69351;BME280;57106;51.446;-2.606;2024-01-30T00:09:51;101841.53;;;12.16;82.71
69351;BME280;57106;51.446;-2.606;2024-01-30T00:19:33;101856.86;;;12.10;82.88
69351;BME280;57106;51.446;-2.606;2024-01-30T00:21:58;101860.64;;;12.30;82.07
69351;BME280;57106;51.446;-2.606;2024-01-30T00:24:23;101868.22;;;12.34;81.45
69351;BME280;57106;51.446;-2.606;2024-01-30T00:26:48;101872.92;;;12.54;80.17
69351;BME280;57106;51.446;-2.606;2024-01-30T00:29:14;101872.94;;;12.29;81.40
69351;BME280;57106;51.446;-2.606;2024-01-30T00:31:39;101876.40;;;12.45;80.92
69351;BME280;57106;51.446;-2.606;2024-01-30T00:34:05;101879.07;;;12.56;80.61
69351;BME280;57106;51.446;-2.606;2024-01-30T00:36:30;101881.62;;;12.72;79.66
69351;BME280;57106;51.446;-2.606;2024-01-30T00:38:56;101880.73;;;12.61;79.92
69351;BME280;57106;51.446;-2.606;2024-01-30T00:41:21;101885.21;;;12.63;79.59
69351;BME280;57106;51.446;-2.606;2024-01-30T00:43:48;101878.88;;;12.05;81.73
69351;BME280;57106;51.446;-2.606;2024-01-30T00:46:13;101883.47;;;12.08;82.04
69351;BME280;57106;51.446;-2.606;2024-01-30T00:48:38;101893.36;;;12.02;82.75
69351;BME280;57106;51.446;-2.606;2024-01-30T00:51:04;101879.24;;;11.80;82.90
69351;BME280;57106;51.446;-2.606;2024-01-30T00:53:29;101878.22;;;11.59;82.02
69351;BME280;57106;51.446;-2.606;2024-01-30T00:55:54;101874.67;;;11.49;81.70
69351;BME280;57106;51.446;-2.606;2024-01-30T00:58:20;101879.42;;;11.13;81.94
69351;BME280;57106;51.446;-2.606;2024-01-30T01:00:46;101873.46;;;10.82;82.41
69351;BME280;57106;51.446;-2.606;2024-01-30T01:03:11;101874.00;;;10.56;83.76
69351;BME280;57106;51.446;-2.606;2024-01-30T01:05:36;101881.37;;;10.32;84.98
69351;BME280;57106;51.446;-2.606;2024-01-30T01:08:02;101879.60;;;10.04;86.53
69351;BME280;57106;51.446;-2.606;2024-01-30T01:10:28;101888.92;;;9.86;87.55
69351;BME280;57106;51.446;-2.606;2024-01-30T01:12:53;101886.07;;;9.92;88.01
69351;BME280;57106;51.446;-2.606;2024-01-30T01:15:19;101891.02;;;9.92;86.88
69351;BME280;57106;51.446;-2.606;2024-01-30T01:17:44;101896.00;;;9.86;86.98
69351;BME280;57106;51.446;-2.606;2024-01-30T01:20:10;101902.21;;;9.75;86.72
69351;BME280;57106;51.446;-2.606;2024-01-30T01:22:35;101904.02;;;9.60;87.09
69351;BME280;57106;51.446;-2.606;2024-01-30T01:25:01;101903.43;;;9.51;87.51
69351;BME280;57106;51.446;-2.606;2024-01-30T01:27:28;101913.16;;;9.58;87.06
69351;BME280;57106;51.446;-2.606;2024-01-30T01:29:53;101909.89;;;9.50;86.50
69351;BME280;57106;51.446;-2.606;2024-01-30T01:32:18;101917.17;;;9.61;86.43
69351;BME280;57106;51.446;-2.606;2024-01-30T01:34:43;101914.59;;;9.49;86.79
69351;BME280;57106;51.446;-2.606;2024-01-30T01:37:09;101911.58;;;9.49;86.48
69351;BME280;57106;51.446;-2.606;2024-01-30T01:39:35;101917.45;;;9.41;86.69
69351;BME280;57106;51.446;-2.606;2024-01-30T01:42:00;101924.71;;;9.41;87.10
69351;BME280;57106;51.446;-2.606;2024-01-30T01:44:28;101925.38;;;9.34;86.22
69351;BME280;57106;51.446;-2.606;2024-01-30T01:46:52;101933.47;;;9.26;85.91
69351;BME280;57106;51.446;-2.606;2024-01-30T01:49:17;101928.57;;;9.27;85.65
69351;BME280;57106;51.446;-2.606;2024-01-30T01:51:44;101925.68;;;9.10;85.98
69351;BME280;57106;51.446;-2.606;2024-01-30T01:54:09;101931.72;;;9.21;85.53
69351;BME280;57106;51.446;-2.606;2024-01-30T01:56:35;101940.00;;;9.07;85.50
69351;BME280;57106;51.446;-2.606;2024-01-30T01:59:05;101951.86;;;9.16;85.21
69351;BME280;57106;51.446;-2.606;2024-01-30T02:01:26;101957.40;;;9.18;84.85
69351;BME280;57106;51.446;-2.606;2024-01-30T02:03:51;101958.59;;;9.12;84.93
69351;BME280;57106;51.446;-2.606;2024-01-30T02:06:17;101971.67;;;9.24;84.56
69351;BME280;57106;51.446;-2.606;2024-01-30T02:08:43;101974.44;;;9.20;85.39
69351;BME280;57106;51.446;-2.606;2024-01-30T02:11:08;101982.35;;;9.03;86.17
69351;BME280;57106;51.446;-2.606;2024-01-30T02:13:33;101986.63;;;9.12;85.55
69351;BME280;57106;51.446;-2.606;2024-01-30T02:15:59;101998.97;;;8.93;85.53
69351;BME280;57106;51.446;-2.606;2024-01-30T02:18:24;102008.84;;;9.03;85.64
69351;BME280;57106;51.446;-2.606;2024-01-30T02:20:53;102015.60;;;9.09;84.68
69351;BME280;57106;51.446;-2.606;2024-01-30T02:23:16;102021.14;;;9.01;84.68
69351;BME280;57106;51.446;-2.606;2024-01-30T02:25:43;102032.13;;;9.11;84.23
69351;BME280;57106;51.446;-2.606;2024-01-30T02:28:08;102032.36;;;9.16;83.61
69351;BME280;57106;51.446;-2.606;2024-01-30T02:30:34;102034.37;;;9.20;82.94
69351;BME280;57106;51.446;-2.606;2024-01-30T02:32:58;102037.35;;;9.19;82.79
69351;BME280;57106;51.446;-2.606;2024-01-30T02:35:24;102039.44;;;9.06;83.01
69351;BME280;57106;51.446;-2.606;2024-01-30T02:37:51;102048.30;;;9.01;82.71
69351;BME280;57106;51.446;-2.606;2024-01-30T02:40:15;102055.87;;;8.77;83.79
69351;BME280;57106;51.446;-2.606;2024-01-30T02:42:41;102062.79;;;8.78;83.53
69351;BME280;57106;51.446;-2.606;2024-01-30T02:45:07;102060.58;;;8.70;83.24
69351;BME280;57106;51.446;-2.606;2024-01-30T02:47:32;102064.32;;;8.63;83.57
69351;BME280;57106;51.446;-2.606;2024-01-30T02:49:58;102065.48;;;8.61;83.15
69351;BME280;57106;51.446;-2.606;2024-01-30T02:52:23;102072.81;;;8.56;82.77
69351;BME280;57106;51.446;-2.606;2024-01-30T02:54:49;102093.02;;;8.77;82.46
69351;BME280;57106;51.446;-2.606;2024-01-30T02:57:17;102105.08;;;8.82;81.66
69351;BME280;57106;51.446;-2.606;2024-01-30T02:59:40;102107.13;;;9.05;80.41
69351;BME280;57106;51.446;-2.606;2024-01-30T03:02:06;102106.04;;;8.94;80.36
69351;BME280;57106;51.446;-2.606;2024-01-30T03:04:31;102105.82;;;8.98;79.59
69351;BME280;57106;51.446;-2.606;2024-01-30T03:06:57;102117.92;;;9.00;79.51
69351;BME280;57106;51.446;-2.606;2024-01-30T03:09:22;102114.89;;;8.87;79.62
69351;BME280;57106;51.446;-2.606;2024-01-30T03:11:48;102118.03;;;8.89;79.30
69351;BME280;57106;51.446;-2.606;2024-01-30T03:14:13;102123.83;;;9.01;79.57
69351;BME280;57106;51.446;-2.606;2024-01-30T03:16:39;102125.97;;;9.11;78.60
69351;BME280;57106;51.446;-2.606;2024-01-30T03:19:06;102139.41;;;8.95;79.30
69351;BME280;57106;51.446;-2.606;2024-01-30T03:21:30;102138.04;;;8.91;79.41
69351;BME280;57106;51.446;-2.606;2024-01-30T03:24:01;102137.06;;;8.80;80.40
69351;BME280;57106;51.446;-2.606;2024-01-30T03:26:22;102142.03;;;8.81;80.25
69351;BME280;57106;51.446;-2.606;2024-01-30T03:28:47;102145.43;;;9.02;79.16
69351;BME280;57106;51.446;-2.606;2024-01-30T03:31:15;102156.58;;;9.04;79.01
69351;BME280;57106;51.446;-2.606;2024-01-30T03:33:39;102165.73;;;9.22;78.22
69351;BME280;57106;51.446;-2.606;2024-01-30T03:36:05;102172.55;;;9.38;77.10
69351;BME280;57106;51.446;-2.606;2024-01-30T03:38:29;102180.31;;;9.53;76.57
69351;BME280;57106;51.446;-2.606;2024-01-30T03:40:55;102191.47;;;9.83;75.19
69351;BME280;57106;51.446;-2.606;2024-01-30T03:43:21;102191.92;;;9.91;74.53
69351;BME280;57106;51.446;-2.606;2024-01-30T03:45:46;102192.99;;;9.96;73.68
69351;BME280;57106;51.446;-2.606;2024-01-30T03:48:12;102195.80;;;9.87;74.36
69351;BME280;57106;51.446;-2.606;2024-01-30T03:50:38;102190.20;;;9.83;74.31
69351;BME280;57106;51.446;-2.606;2024-01-30T03:53:03;102191.54;;;9.58;74.96
69351;BME280;57106;51.446;-2.606;2024-01-30T03:55:29;102193.50;;;9.52;75.76
69351;BME280;57106;51.446;-2.606;2024-01-30T03:57:56;102190.37;;;9.34;76.52
69351;BME280;57106;51.446;-2.606;2024-01-30T04:00:19;102193.35;;;9.31;76.63
69351;BME280;57106;51.446;-2.606;2024-01-30T04:02:45;102191.26;;;9.11;76.88
69351;BME280;57106;51.446;-2.606;2024-01-30T04:05:11;102196.63;;;9.13;77.81
69351;BME280;57106;51.446;-2.606;2024-01-30T04:07:36;102202.36;;;9.30;77.06
69351;BME280;57106;51.446;-2.606;2024-01-30T04:10:02;102205.66;;;9.54;75.84
69351;BME280;57106;51.446;-2.606;2024-01-30T04:12:28;102206.51;;;9.27;76.47
69351;BME280;57106;51.446;-2.606;2024-01-30T04:14:53;102209.56;;;9.37;76.17
69351;BME280;57106;51.446;-2.606;2024-01-30T04:17:18;102215.29;;;9.48;75.39
69351;BME280;57106;51.446;-2.606;2024-01-30T04:19:44;102225.77;;;9.51;75.40
69351;BME280;57106;51.446;-2.606;2024-01-30T04:22:12;102221.50;;;9.53;74.97
69351;BME280;57106;51.446;-2.606;2024-01-30T04:24:35;102225.94;;;9.44;75.26
69351;BME280;57106;51.446;-2.606;2024-01-30T04:27:01;102231.25;;;9.32;75.47
69351;BME280;57106;51.446;-2.606;2024-01-30T04:29:27;102242.27;;;9.61;74.51
69351;BME280;57106;51.446;-2.606;2024-01-30T04:31:52;102237.89;;;9.31;75.41
69351;BME280;57106;51.446;-2.606;2024-01-30T04:34:18;102241.50;;;9.30;75.03
69351;BME280;57106;51.446;-2.606;2024-01-30T04:39:09;102254.33;;;9.39;74.71
69351;BME280;57106;51.446;-2.606;2024-01-30T04:44:00;102265.48;;;9.52;74.42
69351;BME280;57106;51.446;-2.606;2024-01-30T04:46:26;102273.67;;;9.29;75.32
69351;BME280;57106;51.446;-2.606;2024-01-30T04:48:51;102278.10;;;9.04;76.39
69351;BME280;57106;51.446;-2.606;2024-01-30T04:51:17;102282.15;;;8.83;77.57
69351;BME280;57106;51.446;-2.606;2024-01-30T04:53:43;102279.21;;;8.87;77.94
69351;BME280;57106;51.446;-2.606;2024-01-30T04:56:08;102284.64;;;9.03;77.29
69351;BME280;57106;51.446;-2.606;2024-01-30T04:58:34;102288.92;;;8.84;77.79
69351;BME280;57106;51.446;-2.606;2024-01-30T05:00:59;102297.60;;;8.83;77.90
69351;BME280;57106;51.446;-2.606;2024-01-30T05:03:25;102302.59;;;8.94;77.57
69351;BME280;57106;51.446;-2.606;2024-01-30T05:05:50;102312.98;;;8.90;77.45
69351;BME280;57106;51.446;-2.606;2024-01-30T05:08:16;102316.87;;;8.97;77.56
69351;BME280;57106;51.446;-2.606;2024-01-30T05:10:42;102322.96;;;9.12;76.77
69351;BME280;57106;51.446;-2.606;2024-01-30T05:20:26;102328.75;;;9.40;75.23
69351;BME280;57106;51.446;-2.606;2024-01-30T05:22:50;102336.83;;;9.30;74.97
69351;BME280;57106;51.446;-2.606;2024-01-30T05:25:15;102345.75;;;9.20;75.38
69351;BME280;57106;51.446;-2.606;2024-01-30T05:27:41;102354.31;;;9.35;75.30
69351;BME280;57106;51.446;-2.606;2024-01-30T05:30:07;102360.32;;;9.46;75.44
69351;BME280;57106;51.446;-2.606;2024-01-30T05:32:32;102369.12;;;9.38;75.56
69351;BME280;57106;51.446;-2.606;2024-01-30T05:34:58;102374.20;;;9.33;75.63
69351;BME280;57106;51.446;-2.606;2024-01-30T05:37:23;102376.82;;;9.26;76.00
69351;BME280;57106;51.446;-2.606;2024-01-30T05:39:49;102383.29;;;9.45;75.48
69351;BME280;57106;51.446;-2.606;2024-01-30T05:42:15;102383.62;;;9.22;76.50
69351;BME280;57106;51.446;-2.606;2024-01-30T05:44:40;102384.06;;;9.33;75.94
69351;BME280;57106;51.446;-2.606;2024-01-30T05:47:07;102391.62;;;9.30;76.11
69351;BME280;57106;51.446;-2.606;2024-01-30T05:49:32;102402.92;;;9.09;77.00
69351;BME280;57106;51.446;-2.606;2024-01-30T05:51:57;102403.70;;;8.91;77.98
69351;BME280;57106;51.446;-2.606;2024-01-30T05:54:23;102406.00;;;9.00;77.67
69351;BME280;57106;51.446;-2.606;2024-01-30T05:56:48;102408.50;;;8.73;78.21
69351;BME280;57106;51.446;-2.606;2024-01-30T05:59:14;102414.97;;;8.93;78.00
69351;BME280;57106;51.446;-2.606;2024-01-30T06:01:45;102416.87;;;8.91;77.93
69351;BME280;57106;51.446;-2.606;2024-01-30T06:04:08;102418.20;;;9.14;77.53
69351;BME280;57106;51.446;-2.606;2024-01-30T06:06:31;102422.69;;;8.99;78.00
69351;BME280;57106;51.446;-2.606;2024-01-30T06:08:57;102430.12;;;8.98;78.61
69351;BME280;57106;51.446;-2.606;2024-01-30T06:11:24;102435.70;;;8.82;79.31
69351;BME280;57106;51.446;-2.606;2024-01-30T06:13:48;102441.18;;;8.79;80.88
69351;BME280;57106;51.446;-2.606;2024-01-30T06:16:13;102444.37;;;8.73;80.97
69351;BME280;57106;51.446;-2.606;2024-01-30T06:18:39;102445.27;;;8.98;80.97
69351;BME280;57106;51.446;-2.606;2024-01-30T06:21:05;102449.96;;;9.06;80.36
69351;BME280;57106;51.446;-2.606;2024-01-30T06:23:30;102453.35;;;8.93;80.26
69351;BME280;57106;51.446;-2.606;2024-01-30T06:25:56;102463.47;;;8.90;80.89
69351;BME280;57106;51.446;-2.606;2024-01-30T06:28:21;102459.48;;;9.04;79.84
69351;BME280;57106;51.446;-2.606;2024-01-30T06:30:47;102466.08;;;9.01;79.14
69351;BME280;57106;51.446;-2.606;2024-01-30T06:33:17;102477.33;;;9.24;78.71
69351;BME280;57106;51.446;-2.606;2024-01-30T06:35:38;102479.68;;;9.06;78.70
69351;BME280;57106;51.446;-2.606;2024-01-30T06:38:04;102481.90;;;9.15;78.34
69351;BME280;57106;51.446;-2.606;2024-01-30T06:40:29;102493.71;;;9.06;79.01
69351;BME280;57106;51.446;-2.606;2024-01-30T06:42:54;102495.74;;;8.86;79.33
69351;BME280;57106;51.446;-2.606;2024-01-30T06:45:20;102502.71;;;8.95;79.20
69351;BME280;57106;51.446;-2.606;2024-01-30T06:47:48;102504.02;;;8.95;79.03
69351;BME280;57106;51.446;-2.606;2024-01-30T06:50:11;102509.40;;;8.82;79.68
69351;BME280;57106;51.446;-2.606;2024-01-30T06:52:37;102512.50;;;9.08;78.89
69351;BME280;57106;51.446;-2.606;2024-01-30T06:55:03;102521.22;;;8.89;79.70
69351;BME280;57106;51.446;-2.606;2024-01-30T06:57:29;102524.11;;;8.78;79.80
69351;BME280;57106;51.446;-2.606;2024-01-30T06:59:56;102521.56;;;8.81;79.97
69351;BME280;57106;51.446;-2.606;2024-01-30T07:02:19;102524.72;;;8.82;80.19
69351;BME280;57106;51.446;-2.606;2024-01-30T07:04:45;102528.81;;;8.80;80.44
69351;BME280;57106;51.446;-2.606;2024-01-30T07:07:11;102534.77;;;8.94;79.71
69351;BME280;57106;51.446;-2.606;2024-01-30T07:09:36;102537.79;;;8.85;79.53
69351;BME280;57106;51.446;-2.606;2024-01-30T07:12:03;102541.53;;;8.99;79.27
69351;BME280;57106;51.446;-2.606;2024-01-30T07:14:28;102546.25;;;9.09;79.28
69351;BME280;57106;51.446;-2.606;2024-01-30T07:16:53;102551.54;;;9.11;78.74
69351;BME280;57106;51.446;-2.606;2024-01-30T07:19:19;102559.82;;;9.15;78.27
69351;BME280;57106;51.446;-2.606;2024-01-30T07:21:44;102562.94;;;9.17;77.99
69351;BME280;57106;51.446;-2.606;2024-01-30T07:24:10;102568.63;;;9.02;78.48
69351;BME280;57106;51.446;-2.606;2024-01-30T07:26:36;102565.42;;;9.10;77.85
69351;BME280;57106;51.446;-2.606;2024-01-30T07:29:01;102571.28;;;9.27;77.20
69351;BME280;57106;51.446;-2.606;2024-01-30T07:31:27;102576.62;;;9.11;77.14
69351;BME280;57106;51.446;-2.606;2024-01-30T07:33:52;102581.97;;;9.08;77.88
69351;BME280;57106;51.446;-2.606;2024-01-30T07:36:19;102581.73;;;9.23;77.31
69351;BME280;57106;51.446;-2.606;2024-01-30T07:38:44;102585.31;;;9.07;77.25
69351;BME280;57106;51.446;-2.606;2024-01-30T07:41:09;102588.83;;;9.04;78.08
69351;BME280;57106;51.446;-2.606;2024-01-30T07:43:40;102594.32;;;9.04;77.59
69351;BME280;57106;51.446;-2.606;2024-01-30T07:46:01;102597.21;;;9.03;78.62
69351;BME280;57106;51.446;-2.606;2024-01-30T07:48:26;102598.95;;;9.10;78.44
69351;BME280;57106;51.446;-2.606;2024-01-30T07:55:43;102608.28;;;8.93;78.49
69351;BME280;57106;51.446;-2.606;2024-01-30T07:58:09;102616.94;;;9.03;78.93
69351;BME280;57106;51.446;-2.606;2024-01-30T08:00:35;102619.04;;;9.00;78.94
69351;BME280;57106;51.446;-2.606;2024-01-30T08:03:00;102617.70;;;9.08;78.69
69351;BME280;57106;51.446;-2.606;2024-01-30T08:05:26;102618.45;;;9.14;78.24
69351;BME280;57106;51.446;-2.606;2024-01-30T08:07:51;102616.02;;;9.01;78.48
69351;BME280;57106;51.446;-2.606;2024-01-30T08:10:17;102618.14;;;8.95;78.23
69351;BME280;57106;51.446;-2.606;2024-01-30T08:12:43;102617.92;;;8.83;78.65
69351;BME280;57106;51.446;-2.606;2024-01-30T08:15:11;102622.22;;;8.77;78.36
69351;BME280;57106;51.446;-2.606;2024-01-30T08:17:34;102630.89;;;8.77;78.59
69351;BME280;57106;51.446;-2.606;2024-01-30T08:19:59;102637.35;;;8.77;78.19
69351;BME280;57106;51.446;-2.606;2024-01-30T08:22:25;102635.68;;;8.65;78.39
69351;BME280;57106;51.446;-2.606;2024-01-30T08:24:50;102638.94;;;8.79;78.42
69351;BME280;57106;51.446;-2.606;2024-01-30T08:27:16;102642.42;;;8.81;78.47
69351;BME280;57106;51.446;-2.606;2024-01-30T08:29:47;102644.89;;;8.87;77.98
69351;BME280;57106;51.446;-2.606;2024-01-30T08:36:59;102658.20;;;8.91;76.79
69351;BME280;57106;51.446;-2.606;2024-01-30T08:39:24;102660.70;;;8.86;77.10
69351;BME280;57106;51.446;-2.606;2024-01-30T08:41:50;102661.33;;;8.75;77.30
69351;BME280;57106;51.446;-2.606;2024-01-30T08:44:15;102667.35;;;8.72;77.44
69351;BME280;57106;51.446;-2.606;2024-01-30T08:46:40;102674.34;;;8.69;77.41
69351;BME280;57106;51.446;-2.606;2024-01-30T08:49:06;102669.22;;;8.48;77.90
69351;BME280;57106;51.446;-2.606;2024-01-30T08:51:32;102673.92;;;8.51;78.06
69351;BME280;57106;51.446;-2.606;2024-01-30T08:53:58;102678.49;;;8.37;77.90
69351;BME280;57106;51.446;-2.606;2024-01-30T08:56:23;102683.81;;;8.21;78.74
69351;BME280;57106;51.446;-2.606;2024-01-30T08:58:49;102689.26;;;8.33;79.00
69351;BME280;57106;51.446;-2.606;2024-01-30T09:01:15;102695.34;;;8.39;78.61
69351;BME280;57106;51.446;-2.606;2024-01-30T09:03:40;102705.10;;;8.31;78.49
69351;BME280;57106;51.446;-2.606;2024-01-30T09:06:08;102713.59;;;8.52;78.08
69351;BME280;57106;51.446;-2.606;2024-01-30T09:08:31;102718.97;;;8.48;77.49
69351;BME280;57106;51.446;-2.606;2024-01-30T09:10:56;102721.90;;;8.52;77.63
69351;BME280;57106;51.446;-2.606;2024-01-30T09:13:22;102726.48;;;8.52;77.95
69351;BME280;57106;51.446;-2.606;2024-01-30T09:15:48;102732.53;;;8.78;77.45
69351;BME280;57106;51.446;-2.606;2024-01-30T09:18:13;102737.59;;;8.83;76.62
69351;BME280;57106;51.446;-2.606;2024-01-30T09:20:39;102741.88;;;8.74;76.25
69351;BME280;57106;51.446;-2.606;2024-01-30T09:23:04;102744.86;;;8.81;76.28
69351;BME280;57106;51.446;-2.606;2024-01-30T09:25:31;102751.92;;;8.81;76.12
69351;BME280;57106;51.446;-2.606;2024-01-30T09:27:55;102753.09;;;8.88;75.89
69351;BME280;57106;51.446;-2.606;2024-01-30T09:30:21;102759.45;;;8.86;75.67
69351;BME280;57106;51.446;-2.606;2024-01-30T09:32:47;102762.72;;;9.01;75.34
69351;BME280;57106;51.446;-2.606;2024-01-30T09:35:13;102770.72;;;9.21;74.78
69351;BME280;57106;51.446;-2.606;2024-01-30T09:37:38;102776.99;;;9.32;74.24
69351;BME280;57106;51.446;-2.606;2024-01-30T09:40:04;102778.46;;;9.23;74.05
69351;BME280;57106;51.446;-2.606;2024-01-30T09:42:33;102785.08;;;9.27;74.68
69351;BME280;57106;51.446;-2.606;2024-01-30T09:44:55;102788.80;;;9.44;73.26
69351;BME280;57106;51.446;-2.606;2024-01-30T09:47:20;102794.58;;;9.35;73.70
69351;BME280;57106;51.446;-2.606;2024-01-30T09:49:51;102797.03;;;9.47;72.55
69351;BME280;57106;51.446;-2.606;2024-01-30T09:52:12;102804.93;;;9.21;73.66
69351;BME280;57106;51.446;-2.606;2024-01-30T09:54:38;102808.65;;;9.50;73.35
69351;BME280;57106;51.446;-2.606;2024-01-30T09:57:03;102809.95;;;9.62;72.98
69351;BME280;57106;51.446;-2.606;2024-01-30T09:59:28;102813.57;;;9.59;72.93
69351;BME280;57106;51.446;-2.606;2024-01-30T10:01:54;102820.95;;;9.65;72.60
69351;BME280;57106;51.446;-2.606;2024-01-30T10:04:19;102827.52;;;9.53;72.65
69351;BME280;57106;51.446;-2.606;2024-01-30T10:06:46;102833.82;;;9.44;73.03
69351;BME280;57106;51.446;-2.606;2024-01-30T10:09:11;102838.14;;;9.59;72.46
69351;BME280;57106;51.446;-2.606;2024-01-30T10:11:36;102845.45;;;9.36;73.20
69351;BME280;57106;51.446;-2.606;2024-01-30T10:14:02;102854.34;;;9.51;72.81
69351;BME280;57106;51.446;-2.606;2024-01-30T10:16:28;102859.92;;;9.42;73.48
69351;BME280;57106;51.446;-2.606;2024-01-30T10:18:53;102869.24;;;9.59;73.29
69351;BME280;57106;51.446;-2.606;2024-01-30T10:21:19;102878.20;;;9.53;73.31
69351;BME280;57106;51.446;-2.606;2024-01-30T10:23:44;102884.46;;;9.55;72.90
69351;BME280;57106;51.446;-2.606;2024-01-30T10:26:10;102893.11;;;9.37;73.67
69351;BME280;57106;51.446;-2.606;2024-01-30T10:28:36;102899.62;;;9.37;73.66
69351;BME280;57106;51.446;-2.606;2024-01-30T10:31:02;102904.46;;;9.30;73.54
69351;BME280;57106;51.446;-2.606;2024-01-30T10:33:27;102911.22;;;9.29;74.26
69351;BME280;57106;51.446;-2.606;2024-01-30T10:35:53;102914.06;;;9.55;73.65
69351;BME280;57106;51.446;-2.606;2024-01-30T10:38:20;102914.26;;;9.25;74.02
69351;BME280;57106;51.446;-2.606;2024-01-30T10:40:45;102915.65;;;9.27;73.85
69351;BME280;57106;51.446;-2.606;2024-01-30T10:43:11;102917.65;;;9.53;73.32
69351;BME280;57106;51.446;-2.606;2024-01-30T10:45:35;102918.67;;;9.51;73.25
69351;BME280;57106;51.446;-2.606;2024-01-30T10:48:01;102925.96;;;9.26;74.01
69351;BME280;57106;51.446;-2.606;2024-01-30T10:50:26;102929.81;;;9.43;73.72
69351;BME280;57106;51.446;-2.606;2024-01-30T10:52:52;102935.06;;;9.51;73.82
69351;BME280;57106;51.446;-2.606;2024-01-30T10:55:18;102936.07;;;9.51;73.31
69351;BME280;57106;51.446;-2.606;2024-01-30T10:57:43;102942.27;;;9.55;73.41
69351;BME280;57106;51.446;-2.606;2024-01-30T11:00:11;102942.90;;;9.72;73.19
69351;BME280;57106;51.446;-2.606;2024-01-30T11:02:34;102946.87;;;9.82;72.00
69351;BME280;57106;51.446;-2.606;2024-01-30T11:05:00;102947.52;;;9.81;72.16
69351;BME280;57106;51.446;-2.606;2024-01-30T11:07:27;102954.20;;;9.93;71.77
69351;BME280;57106;51.446;-2.606;2024-01-30T11:09:51;102962.58;;;9.93;71.42
69351;BME280;57106;51.446;-2.606;2024-01-30T11:12:18;102966.32;;;9.95;71.82
69351;BME280;57106;51.446;-2.606;2024-01-30T11:14:43;102966.36;;;9.81;71.37
69351;BME280;57106;51.446;-2.606;2024-01-30T11:17:09;102969.75;;;9.64;72.23
69351;BME280;57106;51.446;-2.606;2024-01-30T11:19:33;102971.31;;;9.93;71.37
69351;BME280;57106;51.446;-2.606;2024-01-30T11:21:59;102974.07;;;9.77;70.39
69351;BME280;57106;51.446;-2.606;2024-01-30T11:24:24;102979.97;;;9.79;70.73
69351;BME280;57106;51.446;-2.606;2024-01-30T11:26:55;102979.11;;;9.91;70.72
69351;BME280;57106;51.446;-2.606;2024-01-30T11:29:17;102973.80;;;9.78;72.07
69351;BME280;57106;51.446;-2.606;2024-01-30T11:31:51;102965.02;;;9.75;71.97
69351;BME280;57106;51.446;-2.606;2024-01-30T11:34:07;102964.85;;;9.93;70.44
69351;BME280;57106;51.446;-2.606;2024-01-30T11:36:37;102966.57;;;10.06;69.97
69351;BME280;57106;51.446;-2.606;2024-01-30T11:38:58;102974.84;;;9.97;69.28
69351;BME280;57106;51.446;-2.606;2024-01-30T11:48:41;102980.91;;;9.91;70.01
69351;BME280;57106;51.446;-2.606;2024-01-30T11:51:06;102980.98;;;9.98;70.01
69351;BME280;57106;51.446;-2.606;2024-01-30T11:53:31;102988.79;;;9.99;69.90
69351;BME280;57106;51.446;-2.606;2024-01-30T11:55:57;102983.44;;;10.24;69.07
69351;BME280;57106;51.446;-2.606;2024-01-30T11:58:25;102980.89;;;10.03;69.07
69351;BME280;57106;51.446;-2.606;2024-01-30T12:00:54;102986.51;;;10.12;69.16
69351;BME280;57106;51.446;-2.606;2024-01-30T12:03:14;102993.37;;;10.17;68.74
69351;BME280;57106;51.446;-2.606;2024-01-30T12:05:39;103003.83;;;10.31;68.78
69351;BME280;57106;51.446;-2.606;2024-01-30T12:08:05;103003.80;;;10.47;68.00
69351;BME280;57106;51.446;-2.606;2024-01-30T12:10:30;102998.71;;;10.56;67.26
69351;BME280;57106;51.446;-2.606;2024-01-30T12:12:56;103004.02;;;10.40;67.68
69351;BME280;57106;51.446;-2.606;2024-01-30T12:15:22;103002.40;;;10.11;67.90
69351;BME280;57106;51.446;-2.606;2024-01-30T12:20:14;103009.75;;;10.05;67.38
69351;BME280;57106;51.446;-2.606;2024-01-30T12:22:40;103017.82;;;10.09;67.62
69351;BME280;57106;51.446;-2.606;2024-01-30T12:25:05;103017.61;;;10.09;67.71
69351;BME280;57106;51.446;-2.606;2024-01-30T12:27:30;103021.77;;;10.06;67.32
69351;BME280;57106;51.446;-2.606;2024-01-30T12:29:56;103015.70;;;10.12;67.84
69351;BME280;57106;51.446;-2.606;2024-01-30T12:32:22;103012.09;;;9.99;68.14
69351;BME280;57106;51.446;-2.606;2024-01-30T12:34:46;103010.49;;;10.09;67.52
69351;BME280;57106;51.446;-2.606;2024-01-30T12:39:37;103011.99;;;10.07;67.34
69351;BME280;57106;51.446;-2.606;2024-01-30T12:42:08;103007.27;;;10.35;66.19
69351;BME280;57106;51.446;-2.606;2024-01-30T12:44:29;103013.36;;;10.54;66.59
69351;BME280;57106;51.446;-2.606;2024-01-30T12:46:55;103014.66;;;10.27;66.34
69351;BME280;57106;51.446;-2.606;2024-01-30T12:49:20;103014.82;;;10.26;67.06
69351;BME280;57106;51.446;-2.606;2024-01-30T12:51:45;103016.63;;;10.37;66.40
69351;BME280;57106;51.446;-2.606;2024-01-30T12:54:13;103019.87;;;10.47;66.56
69351;BME280;57106;51.446;-2.606;2024-01-30T12:56:39;103020.53;;;10.44;65.29
69351;BME280;57106;51.446;-2.606;2024-01-30T12:59:02;103019.48;;;10.57;65.85
69351;BME280;57106;51.446;-2.606;2024-01-30T13:01:28;103009.44;;;10.36;65.65
69351;BME280;57106;51.446;-2.606;2024-01-30T13:03:55;103013.47;;;10.37;65.62
69351;BME280;57106;51.446;-2.606;2024-01-30T13:06:18;103018.13;;;10.38;65.46
69351;BME280;57106;51.446;-2.606;2024-01-30T13:08:44;103019.80;;;10.27;65.87
69351;BME280;57106;51.446;-2.606;2024-01-30T13:11:10;103020.54;;;10.40;64.94
69351;BME280;57106;51.446;-2.606;2024-01-30T13:13:35;103029.94;;;10.67;64.78
69351;BME280;57106;51.446;-2.606;2024-01-30T13:16:04;103032.56;;;10.77;64.35
69351;BME280;57106;51.446;-2.606;2024-01-30T13:18:26;103028.95;;;10.68;64.37
69351;BME280;57106;51.446;-2.606;2024-01-30T13:20:52;103030.21;;;10.90;63.74
69351;BME280;57106;51.446;-2.606;2024-01-30T13:23:17;103035.65;;;10.95;63.04
69351;BME280;57106;51.446;-2.606;2024-01-30T13:25:43;103034.24;;;10.97;62.42